This is the latest recevied weather packets stored in our database for station/object K6GMW. If no packets are shown the sender has not sent any weather packets the latest 1 day(s).
| Time | Temp. | Humidity | Pressure | Rain* | Wind** | Luminosity | Snow |
|---|---|---|---|---|---|---|---|
| 1778048737 | 23.89° C | 89% | 1009.2 hPa | 0 mm | 1.34 m/s, 180° | 0 W/m² | - |
| 1778048433 | 23.89° C | 89% | 1009.1 hPa | 0 mm | 1.34 m/s, 171° | 0 W/m² | - |
| 1778048129 | 23.89° C | 89% | 1009.1 hPa | 0 mm | 1.34 m/s, 160° | 0 W/m² | - |
| 1778047827 | 23.89° C | 89% | 1009.1 hPa | 0 mm | 1.79 m/s, 144° | 0 W/m² | - |
| 1778047525 | 23.89° C | 89% | 1009.5 hPa | 0 mm | 2.68 m/s, 167° | 0 W/m² | - |
| 1778047222 | 23.89° C | 89% | 1009.4 hPa | 0 mm | 2.24 m/s, 203° | 0 W/m² | - |
| 1778046919 | 23.89° C | 89% | 1009 hPa | 0 mm | 1.34 m/s, 176° | 0 W/m² | - |
| 1778046615 | 23.89° C | 88% | 1009.4 hPa | 0 mm | 2.24 m/s, 199° | 0 W/m² | - |
| 1778046313 | 23.89° C | 87% | 1009.2 hPa | 0 mm | 1.34 m/s, 170° | 0 W/m² | - |
| 1778046008 | 24.44° C | 87% | 1009.3 hPa | 0 mm | 1.34 m/s, 175° | 0 W/m² | - |
| 1778045707 | 24.44° C | 87% | 1009.7 hPa | 0 mm | 1.34 m/s, 185° | 0 W/m² | - |
| 1778045405 | 24.44° C | 87% | 1009.4 hPa | 0 mm | 1.79 m/s, 194° | 0 W/m² | - |
| 1778045103 | 24.44° C | 87% | 1009.4 hPa | 0 mm | 1.79 m/s, 208° | 0 W/m² | - |
| 1778044800 | 24.44° C | 87% | 1009.5 hPa | 0 mm | 1.34 m/s, 191° | 0 W/m² | - |
| 1778044497 | 24.44° C | 87% | 1008.8 hPa | 0 mm | 1.79 m/s, 159° | 0 W/m² | - |
| 1778044194 | 24.44° C | 87% | 1008.9 hPa | 0 mm | 1.79 m/s, 166° | 0 W/m² | - |
| 1778043892 | 24.44° C | 87% | 1008.8 hPa | 0 mm | 0.89 m/s, 176° | 0 W/m² | - |
| 1778043589 | 24.44° C | 86% | 1008.8 hPa | 0 mm | 1.34 m/s, 176° | 0 W/m² | - |
| 1778043285 | 24.44° C | 86% | 1008.7 hPa | 0 mm | 1.34 m/s, 171° | 0 W/m² | - |
| 1778042982 | 24.44° C | 85% | 1009 hPa | 0 mm | 1.34 m/s, 170° | 0 W/m² | - |
| 1778042680 | 24.44° C | 85% | 1008.9 hPa | 0 mm | 1.34 m/s, 170° | 0 W/m² | - |
| 1778042377 | 25° C | 84% | 1008.8 hPa | 0 mm | 1.79 m/s, 174° | 0 W/m² | - |
| 1778042074 | 25° C | 84% | 1008.9 hPa | 0 mm | 0.89 m/s, 189° | 0 W/m² | - |
| 1778041772 | 25° C | 84% | 1009 hPa | 0 mm | 1.34 m/s, 192° | 0 W/m² | - |
| 1778041471 | 25° C | 84% | 1008.7 hPa | 0 mm | 1.79 m/s, 192° | 0 W/m² | - |
* Rain latest hour (hover to see other rain measurements)
** Current wind speed in m/s (hover to see current wind gust speed)